sensor_id;sensor_type;location;lat;lon;timestamp;P1;durP1;ratioP1;P2;durP2;ratioP2
32790;SDS011;19143;59.322;14.502;2023-02-28T00:00:08;7.57;;;5.10;;
32790;SDS011;19143;59.322;14.502;2023-02-28T00:02:35;13.30;;;7.53;;
32790;SDS011;19143;59.322;14.502;2023-02-28T00:05:02;10.87;;;6.63;;
32790;SDS011;19143;59.322;14.502;2023-02-28T00:07:29;11.17;;;6.73;;
32790;SDS011;19143;59.322;14.502;2023-02-28T00:09:57;5.37;;;3.80;;
32790;SDS011;19143;59.322;14.502;2023-02-28T00:12:24;5.83;;;4.10;;
32790;SDS011;19143;59.322;14.502;2023-02-28T00:14:51;8.23;;;4.90;;
32790;SDS011;19143;59.322;14.502;2023-02-28T00:17:18;11.40;;;6.30;;
32790;SDS011;19143;59.322;14.502;2023-02-28T00:19:46;6.23;;;4.00;;
32790;SDS011;19143;59.322;14.502;2023-02-28T00:22:13;3.80;;;3.23;;
32790;SDS011;19143;59.322;14.502;2023-02-28T00:24:39;5.63;;;3.67;;
32790;SDS011;19143;59.322;14.502;2023-02-28T00:27:08;6.47;;;3.60;;
32790;SDS011;19143;59.322;14.502;2023-02-28T00:29:35;6.13;;;4.07;;
32790;SDS011;19143;59.322;14.502;2023-02-28T00:32:02;5.60;;;3.90;;
32790;SDS011;19143;59.322;14.502;2023-02-28T00:34:29;4.50;;;3.70;;
32790;SDS011;19143;59.322;14.502;2023-02-28T00:36:55;6.57;;;4.17;;
32790;SDS011;19143;59.322;14.502;2023-02-28T00:39:25;4.80;;;3.60;;
32790;SDS011;19143;59.322;14.502;2023-02-28T00:41:52;3.67;;;3.10;;
32790;SDS011;19143;59.322;14.502;2023-02-28T00:44:20;4.07;;;3.17;;
32790;SDS011;19143;59.322;14.502;2023-02-28T00:46:48;4.70;;;3.00;;
32790;SDS011;19143;59.322;14.502;2023-02-28T00:49:14;3.80;;;3.17;;
32790;SDS011;19143;59.322;14.502;2023-02-28T00:51:41;3.17;;;2.73;;
32790;SDS011;19143;59.322;14.502;2023-02-28T00:54:08;4.83;;;3.00;;
32790;SDS011;19143;59.322;14.502;2023-02-28T00:56:35;3.77;;;2.87;;
32790;SDS011;19143;59.322;14.502;2023-02-28T00:59:01;2.97;;;2.70;;
32790;SDS011;19143;59.322;14.502;2023-02-28T01:01:30;2.40;;;2.30;;
32790;SDS011;19143;59.322;14.502;2023-02-28T01:03:56;4.13;;;3.00;;
32790;SDS011;19143;59.322;14.502;2023-02-28T01:06:23;4.57;;;3.60;;
32790;SDS011;19143;59.322;14.502;2023-02-28T01:08:50;5.30;;;3.50;;
32790;SDS011;19143;59.322;14.502;2023-02-28T01:11:17;3.93;;;3.40;;
32790;SDS011;19143;59.322;14.502;2023-02-28T01:13:44;4.10;;;3.60;;
32790;SDS011;19143;59.322;14.502;2023-02-28T01:16:11;4.80;;;3.30;;
32790;SDS011;19143;59.322;14.502;2023-02-28T01:18:39;9.37;;;3.63;;
32790;SDS011;19143;59.322;14.502;2023-02-28T01:21:07;3.77;;;3.07;;
32790;SDS011;19143;59.322;14.502;2023-02-28T01:23:33;3.23;;;2.90;;
32790;SDS011;19143;59.322;14.502;2023-02-28T01:26:05;3.63;;;2.73;;
32790;SDS011;19143;59.322;14.502;2023-02-28T01:28:32;2.77;;;2.50;;
32790;SDS011;19143;59.322;14.502;2023-02-28T01:30:59;3.63;;;2.80;;
32790;SDS011;19143;59.322;14.502;2023-02-28T01:33:25;3.17;;;2.87;;
32790;SDS011;19143;59.322;14.502;2023-02-28T01:35:58;6.50;;;4.00;;
32790;SDS011;19143;59.322;14.502;2023-02-28T01:38:25;4.03;;;3.63;;
32790;SDS011;19143;59.322;14.502;2023-02-28T01:40:52;3.57;;;3.27;;
32790;SDS011;19143;59.322;14.502;2023-02-28T01:43:20;4.63;;;2.80;;
32790;SDS011;19143;59.322;14.502;2023-02-28T01:45:48;3.30;;;2.67;;
32790;SDS011;19143;59.322;14.502;2023-02-28T01:48:14;2.47;;;2.27;;
32790;SDS011;19143;59.322;14.502;2023-02-28T01:50:43;6.80;;;3.80;;
32790;SDS011;19143;59.322;14.502;2023-02-28T01:53:12;5.27;;;4.00;;
32790;SDS011;19143;59.322;14.502;2023-02-28T01:55:40;4.40;;;3.33;;
32790;SDS011;19143;59.322;14.502;2023-02-28T01:58:07;3.27;;;2.70;;
32790;SDS011;19143;59.322;14.502;2023-02-28T02:00:35;2.30;;;2.10;;
32790;SDS011;19143;59.322;14.502;2023-02-28T02:03:04;4.70;;;3.20;;
32790;SDS011;19143;59.322;14.502;2023-02-28T02:05:32;8.37;;;4.67;;
32790;SDS011;19143;59.322;14.502;2023-02-28T02:08:01;3.93;;;3.43;;
32790;SDS011;19143;59.322;14.502;2023-02-28T02:10:31;3.53;;;2.80;;
32790;SDS011;19143;59.322;14.502;2023-02-28T02:13:10;2.07;;;1.97;;
32790;SDS011;19143;59.322;14.502;2023-02-28T02:15:41;2.70;;;2.50;;
32790;SDS011;19143;59.322;14.502;2023-02-28T02:18:11;1.57;;;1.47;;
32790;SDS011;19143;59.322;14.502;2023-02-28T02:20:51;1.43;;;1.43;;
32790;SDS011;19143;59.322;14.502;2023-02-28T02:23:33;1.40;;;1.30;;
32790;SDS011;19143;59.322;14.502;2023-02-28T02:26:18;1.30;;;1.30;;
32790;SDS011;19143;59.322;14.502;2023-02-28T02:29:02;1.60;;;1.47;;
32790;SDS011;19143;59.322;14.502;2023-02-28T02:31:50;1.77;;;1.67;;
32790;SDS011;19143;59.322;14.502;2023-02-28T02:34:27;2.13;;;1.53;;
32790;SDS011;19143;59.322;14.502;2023-02-28T02:36:57;1.60;;;1.50;;
32790;SDS011;19143;59.322;14.502;2023-02-28T02:39:27;1.90;;;1.70;;
32790;SDS011;19143;59.322;14.502;2023-02-28T02:41:58;4.33;;;2.00;;
32790;SDS011;19143;59.322;14.502;2023-02-28T02:44:28;2.57;;;2.20;;
32790;SDS011;19143;59.322;14.502;2023-02-28T02:46:58;2.23;;;1.90;;
32790;SDS011;19143;59.322;14.502;2023-02-28T02:49:26;1.80;;;1.70;;
32790;SDS011;19143;59.322;14.502;2023-02-28T02:51:56;2.97;;;1.60;;
32790;SDS011;19143;59.322;14.502;2023-02-28T02:54:24;8.00;;;2.00;;
32790;SDS011;19143;59.322;14.502;2023-02-28T02:56:54;2.23;;;2.03;;
32790;SDS011;19143;59.322;14.502;2023-02-28T02:59:21;2.23;;;2.00;;
32790;SDS011;19143;59.322;14.502;2023-02-28T03:01:49;2.37;;;1.97;;
32790;SDS011;19143;59.322;14.502;2023-02-28T03:04:17;2.37;;;1.90;;
32790;SDS011;19143;59.322;14.502;2023-02-28T03:06:45;2.63;;;2.03;;
32790;SDS011;19143;59.322;14.502;2023-02-28T03:09:16;2.17;;;2.07;;
32790;SDS011;19143;59.322;14.502;2023-02-28T03:11:42;1.77;;;1.73;;
32790;SDS011;19143;59.322;14.502;2023-02-28T03:17:12;2.43;;;2.27;;
32790;SDS011;19143;59.322;14.502;2023-02-28T03:19:45;1.80;;;1.70;;
32790;SDS011;19143;59.322;14.502;2023-02-28T03:22:16;2.40;;;2.20;;
32790;SDS011;19143;59.322;14.502;2023-02-28T03:24:49;3.83;;;2.30;;
32790;SDS011;19143;59.322;14.502;2023-02-28T03:27:17;2.73;;;2.40;;
32790;SDS011;19143;59.322;14.502;2023-02-28T03:29:47;1.80;;;1.70;;
32790;SDS011;19143;59.322;14.502;2023-02-28T03:32:16;2.37;;;2.07;;
32790;SDS011;19143;59.322;14.502;2023-02-28T03:34:47;3.13;;;2.10;;
32790;SDS011;19143;59.322;14.502;2023-02-28T03:37:17;2.00;;;1.90;;
32790;SDS011;19143;59.322;14.502;2023-02-28T03:39:46;1.70;;;1.70;;
32790;SDS011;19143;59.322;14.502;2023-02-28T03:42:15;2.60;;;2.40;;
32790;SDS011;19143;59.322;14.502;2023-02-28T03:44:42;2.50;;;2.10;;
32790;SDS011;19143;59.322;14.502;2023-02-28T03:47:11;2.50;;;2.13;;
32790;SDS011;19143;59.322;14.502;2023-02-28T03:49:40;2.27;;;2.07;;
32790;SDS011;19143;59.322;14.502;2023-02-28T03:52:09;2.10;;;2.00;;
32790;SDS011;19143;59.322;14.502;2023-02-28T03:54:37;1.90;;;1.80;;
32790;SDS011;19143;59.322;14.502;2023-02-28T03:57:07;1.90;;;1.80;;
32790;SDS011;19143;59.322;14.502;2023-02-28T03:59:39;2.00;;;1.90;;
32790;SDS011;19143;59.322;14.502;2023-02-28T04:02:08;1.80;;;1.70;;
32790;SDS011;19143;59.322;14.502;2023-02-28T04:04:35;2.07;;;1.97;;
32790;SDS011;19143;59.322;14.502;2023-02-28T04:07:02;1.90;;;1.80;;
32790;SDS011;19143;59.322;14.502;2023-02-28T04:09:29;2.00;;;1.80;;
32790;SDS011;19143;59.322;14.502;2023-02-28T04:11:55;2.03;;;1.87;;
32790;SDS011;19143;59.322;14.502;2023-02-28T04:14:22;1.83;;;1.73;;
32790;SDS011;19143;59.322;14.502;2023-02-28T04:16:50;2.00;;;1.90;;
32790;SDS011;19143;59.322;14.502;2023-02-28T04:19:17;2.00;;;1.90;;
32790;SDS011;19143;59.322;14.502;2023-02-28T04:21:44;1.80;;;1.70;;
32790;SDS011;19143;59.322;14.502;2023-02-28T04:24:12;1.90;;;1.80;;
32790;SDS011;19143;59.322;14.502;2023-02-28T04:26:40;2.23;;;2.07;;
32790;SDS011;19143;59.322;14.502;2023-02-28T04:29:08;2.00;;;1.87;;
32790;SDS011;19143;59.322;14.502;2023-02-28T04:31:35;1.97;;;1.87;;
32790;SDS011;19143;59.322;14.502;2023-02-28T04:34:03;2.87;;;2.30;;
32790;SDS011;19143;59.322;14.502;2023-02-28T04:36:30;1.93;;;1.83;;
32790;SDS011;19143;59.322;14.502;2023-02-28T04:38:57;1.40;;;1.40;;
32790;SDS011;19143;59.322;14.502;2023-02-28T04:41:24;1.70;;;1.50;;
32790;SDS011;19143;59.322;14.502;2023-02-28T04:43:51;1.70;;;1.60;;
32790;SDS011;19143;59.322;14.502;2023-02-28T04:46:17;1.70;;;1.60;;
32790;SDS011;19143;59.322;14.502;2023-02-28T04:48:45;1.53;;;1.50;;
32790;SDS011;19143;59.322;14.502;2023-02-28T04:51:14;1.53;;;1.43;;
32790;SDS011;19143;59.322;14.502;2023-02-28T04:53:42;2.47;;;1.60;;
32790;SDS011;19143;59.322;14.502;2023-02-28T04:56:10;3.73;;;2.10;;
32790;SDS011;19143;59.322;14.502;2023-02-28T04:58:37;4.13;;;1.93;;
32790;SDS011;19143;59.322;14.502;2023-02-28T05:01:06;1.70;;;1.60;;
32790;SDS011;19143;59.322;14.502;2023-02-28T05:03:37;2.10;;;1.73;;
32790;SDS011;19143;59.322;14.502;2023-02-28T05:06:05;4.77;;;1.80;;
32790;SDS011;19143;59.322;14.502;2023-02-28T05:08:33;1.70;;;1.60;;
32790;SDS011;19143;59.322;14.502;2023-02-28T05:11:01;1.73;;;1.63;;
32790;SDS011;19143;59.322;14.502;2023-02-28T05:13:28;1.77;;;1.67;;
32790;SDS011;19143;59.322;14.502;2023-02-28T05:15:55;1.60;;;1.50;;
32790;SDS011;19143;59.322;14.502;2023-02-28T05:18:21;1.80;;;1.70;;
32790;SDS011;19143;59.322;14.502;2023-02-28T05:20:48;2.53;;;1.97;;
32790;SDS011;19143;59.322;14.502;2023-02-28T05:23:14;2.37;;;2.10;;
32790;SDS011;19143;59.322;14.502;2023-02-28T05:25:44;3.93;;;3.20;;
32790;SDS011;19143;59.322;14.502;2023-02-28T05:28:10;6.17;;;3.20;;
32790;SDS011;19143;59.322;14.502;2023-02-28T05:30:37;4.77;;;3.60;;
32790;SDS011;19143;59.322;14.502;2023-02-28T05:33:04;9.57;;;4.70;;
32790;SDS011;19143;59.322;14.502;2023-02-28T05:35:31;7.43;;;3.90;;
32790;SDS011;19143;59.322;14.502;2023-02-28T05:37:57;6.43;;;4.00;;
32790;SDS011;19143;59.322;14.502;2023-02-28T05:40:24;2.60;;;2.40;;
32790;SDS011;19143;59.322;14.502;2023-02-28T05:42:52;7.03;;;2.67;;
32790;SDS011;19143;59.322;14.502;2023-02-28T05:45:19;6.87;;;4.00;;
32790;SDS011;19143;59.322;14.502;2023-02-28T05:47:46;12.10;;;3.43;;
32790;SDS011;19143;59.322;14.502;2023-02-28T05:50:13;4.83;;;2.90;;
32790;SDS011;19143;59.322;14.502;2023-02-28T05:52:39;3.87;;;2.40;;
32790;SDS011;19143;59.322;14.502;2023-02-28T05:55:06;4.80;;;2.87;;
32790;SDS011;19143;59.322;14.502;2023-02-28T05:57:40;4.53;;;2.90;;
32790;SDS011;19143;59.322;14.502;2023-02-28T06:00:10;3.83;;;3.13;;
32790;SDS011;19143;59.322;14.502;2023-02-28T06:02:40;7.33;;;3.73;;
32790;SDS011;19143;59.322;14.502;2023-02-28T06:05:08;6.23;;;3.87;;
32790;SDS011;19143;59.322;14.502;2023-02-28T06:07:52;7.20;;;3.40;;
32790;SDS011;19143;59.322;14.502;2023-02-28T06:10:18;9.00;;;4.33;;
32790;SDS011;19143;59.322;14.502;2023-02-28T06:12:45;4.80;;;3.90;;
32790;SDS011;19143;59.322;14.502;2023-02-28T06:15:14;4.67;;;2.97;;
32790;SDS011;19143;59.322;14.502;2023-02-28T06:17:41;3.47;;;2.90;;
32790;SDS011;19143;59.322;14.502;2023-02-28T06:20:08;2.30;;;2.10;;
32790;SDS011;19143;59.322;14.502;2023-02-28T06:22:37;2.60;;;2.40;;
32790;SDS011;19143;59.322;14.502;2023-02-28T06:25:05;3.83;;;2.60;;
32790;SDS011;19143;59.322;14.502;2023-02-28T06:27:32;4.10;;;2.80;;
32790;SDS011;19143;59.322;14.502;2023-02-28T06:30:06;4.07;;;3.00;;
32790;SDS011;19143;59.322;14.502;2023-02-28T06:32:34;7.90;;;2.93;;
32790;SDS011;19143;59.322;14.502;2023-02-28T06:35:01;4.30;;;2.80;;
32790;SDS011;19143;59.322;14.502;2023-02-28T06:37:28;5.43;;;3.33;;
32790;SDS011;19143;59.322;14.502;2023-02-28T06:39:56;2.50;;;2.30;;
32790;SDS011;19143;59.322;14.502;2023-02-28T06:42:23;3.53;;;2.90;;
32790;SDS011;19143;59.322;14.502;2023-02-28T06:44:54;4.70;;;3.20;;
32790;SDS011;19143;59.322;14.502;2023-02-28T06:47:20;6.90;;;3.30;;
32790;SDS011;19143;59.322;14.502;2023-02-28T06:49:49;5.73;;;3.20;;
32790;SDS011;19143;59.322;14.502;2023-02-28T06:52:15;4.43;;;3.20;;
32790;SDS011;19143;59.322;14.502;2023-02-28T06:54:42;3.37;;;3.03;;
32790;SDS011;19143;59.322;14.502;2023-02-28T06:57:10;9.30;;;3.70;;
32790;SDS011;19143;59.322;14.502;2023-02-28T06:59:36;7.50;;;4.33;;
32790;SDS011;19143;59.322;14.502;2023-02-28T07:02:03;7.00;;;4.43;;
32790;SDS011;19143;59.322;14.502;2023-02-28T07:04:33;5.90;;;3.67;;
32790;SDS011;19143;59.322;14.502;2023-02-28T07:07:01;4.23;;;3.50;;
32790;SDS011;19143;59.322;14.502;2023-02-28T07:09:27;7.50;;;3.33;;
32790;SDS011;19143;59.322;14.502;2023-02-28T07:11:55;4.67;;;3.73;;
32790;SDS011;19143;59.322;14.502;2023-02-28T07:14:21;5.33;;;3.50;;
32790;SDS011;19143;59.322;14.502;2023-02-28T07:16:48;4.67;;;3.60;;
32790;SDS011;19143;59.322;14.502;2023-02-28T07:19:15;5.63;;;4.03;;
32790;SDS011;19143;59.322;14.502;2023-02-28T07:21:42;4.50;;;3.57;;
32790;SDS011;19143;59.322;14.502;2023-02-28T07:24:10;6.93;;;4.53;;
32790;SDS011;19143;59.322;14.502;2023-02-28T07:26:36;11.43;;;5.73;;
32790;SDS011;19143;59.322;14.502;2023-02-28T07:29:03;10.87;;;5.07;;
32790;SDS011;19143;59.322;14.502;2023-02-28T07:31:30;14.67;;;5.27;;
32790;SDS011;19143;59.322;14.502;2023-02-28T07:33:56;8.30;;;4.57;;
32790;SDS011;19143;59.322;14.502;2023-02-28T07:36:23;6.53;;;3.83;;
32790;SDS011;19143;59.322;14.502;2023-02-28T07:38:50;5.33;;;4.00;;
32790;SDS011;19143;59.322;14.502;2023-02-28T07:41:19;8.17;;;3.83;;
32790;SDS011;19143;59.322;14.502;2023-02-28T07:43:46;5.90;;;3.67;;
32790;SDS011;19143;59.322;14.502;2023-02-28T07:46:14;4.43;;;3.27;;
32790;SDS011;19143;59.322;14.502;2023-02-28T07:48:41;3.43;;;3.00;;
32790;SDS011;19143;59.322;14.502;2023-02-28T07:51:08;3.83;;;2.90;;
32790;SDS011;19143;59.322;14.502;2023-02-28T07:53:34;2.27;;;2.07;;
32790;SDS011;19143;59.322;14.502;2023-02-28T07:56:02;3.50;;;2.20;;
32790;SDS011;19143;59.322;14.502;2023-02-28T07:58:31;2.60;;;2.00;;
32790;SDS011;19143;59.322;14.502;2023-02-28T08:00:57;3.07;;;2.17;;
32790;SDS011;19143;59.322;14.502;2023-02-28T08:03:31;4.07;;;2.27;;
32790;SDS011;19143;59.322;14.502;2023-02-28T08:05:58;2.67;;;2.13;;
32790;SDS011;19143;59.322;14.502;2023-02-28T08:08:24;2.23;;;2.13;;
32790;SDS011;19143;59.322;14.502;2023-02-28T08:10:57;2.03;;;1.87;;
32790;SDS011;19143;59.322;14.502;2023-02-28T08:13:24;2.03;;;1.80;;
32790;SDS011;19143;59.322;14.502;2023-02-28T08:15:53;5.47;;;1.90;;
32790;SDS011;19143;59.322;14.502;2023-02-28T08:18:20;3.73;;;1.90;;
32790;SDS011;19143;59.322;14.502;2023-02-28T08:20:47;1.80;;;1.70;;
32790;SDS011;19143;59.322;14.502;2023-02-28T08:23:14;6.40;;;1.83;;
32790;SDS011;19143;59.322;14.502;2023-02-28T08:25:40;5.60;;;1.80;;
32790;SDS011;19143;59.322;14.502;2023-02-28T08:28:07;2.40;;;1.70;;
32790;SDS011;19143;59.322;14.502;2023-02-28T08:30:34;1.60;;;1.50;;
32790;SDS011;19143;59.322;14.502;2023-02-28T08:33:02;1.80;;;1.70;;
32790;SDS011;19143;59.322;14.502;2023-02-28T08:35:29;1.77;;;1.67;;
32790;SDS011;19143;59.322;14.502;2023-02-28T08:37:55;1.23;;;1.23;;
32790;SDS011;19143;59.322;14.502;2023-02-28T08:40:23;2.33;;;1.60;;
32790;SDS011;19143;59.322;14.502;2023-02-28T08:42:50;1.43;;;1.40;;
32790;SDS011;19143;59.322;14.502;2023-02-28T08:45:16;2.93;;;1.20;;
32790;SDS011;19143;59.322;14.502;2023-02-28T08:47:44;1.07;;;1.07;;
32790;SDS011;19143;59.322;14.502;2023-02-28T08:50:12;4.23;;;1.23;;
32790;SDS011;19143;59.322;14.502;2023-02-28T08:52:41;5.87;;;1.47;;
32790;SDS011;19143;59.322;14.502;2023-02-28T08:55:08;1.27;;;1.07;;
32790;SDS011;19143;59.322;14.502;2023-02-28T08:57:35;1.10;;;1.00;;
32790;SDS011;19143;59.322;14.502;2023-02-28T09:00:03;0.43;;;0.43;;
32790;SDS011;19143;59.322;14.502;2023-02-28T09:02:30;0.60;;;0.60;;
32790;SDS011;19143;59.322;14.502;2023-02-28T09:04:57;2.30;;;0.67;;
32790;SDS011;19143;59.322;14.502;2023-02-28T09:07:25;0.83;;;0.70;;
32790;SDS011;19143;59.322;14.502;2023-02-28T09:09:52;0.50;;;0.50;;
32790;SDS011;19143;59.322;14.502;2023-02-28T09:12:23;0.57;;;0.57;;
32790;SDS011;19143;59.322;14.502;2023-02-28T09:14:50;0.70;;;0.70;;
32790;SDS011;19143;59.322;14.502;2023-02-28T09:17:17;0.93;;;0.77;;
32790;SDS011;19143;59.322;14.502;2023-02-28T09:19:44;0.83;;;0.70;;
32790;SDS011;19143;59.322;14.502;2023-02-28T09:22:10;0.90;;;0.57;;
32790;SDS011;19143;59.322;14.502;2023-02-28T09:24:40;0.50;;;0.50;;
32790;SDS011;19143;59.322;14.502;2023-02-28T09:27:07;2.43;;;0.57;;
32790;SDS011;19143;59.322;14.502;2023-02-28T09:29:34;0.30;;;0.30;;
32790;SDS011;19143;59.322;14.502;2023-02-28T09:32:01;0.20;;;0.20;;
32790;SDS011;19143;59.322;14.502;2023-02-28T09:34:30;0.40;;;0.23;;
32790;SDS011;19143;59.322;14.502;2023-02-28T09:36:57;3.13;;;0.40;;
32790;SDS011;19143;59.322;14.502;2023-02-28T09:39:30;0.30;;;0.30;;
32790;SDS011;19143;59.322;14.502;2023-02-28T09:41:58;0.30;;;0.30;;
32790;SDS011;19143;59.322;14.502;2023-02-28T09:44:27;1.03;;;0.37;;
32790;SDS011;19143;59.322;14.502;2023-02-28T09:46:56;0.80;;;0.80;;
32790;SDS011;19143;59.322;14.502;2023-02-28T09:49:25;0.50;;;0.50;;
32790;SDS011;19143;59.322;14.502;2023-02-28T09:51:56;0.30;;;0.30;;
32790;SDS011;19143;59.322;14.502;2023-02-28T09:54:26;0.47;;;0.47;;
32790;SDS011;19143;59.322;14.502;2023-02-28T09:56:56;0.50;;;0.50;;
32790;SDS011;19143;59.322;14.502;2023-02-28T09:59:29;0.40;;;0.40;;
32790;SDS011;19143;59.322;14.502;2023-02-28T10:02:00;0.30;;;0.30;;
32790;SDS011;19143;59.322;14.502;2023-02-28T10:04:35;0.30;;;0.30;;
32790;SDS011;19143;59.322;14.502;2023-02-28T10:07:04;0.30;;;0.30;;
32790;SDS011;19143;59.322;14.502;2023-02-28T10:09:34;0.70;;;0.40;;
32790;SDS011;19143;59.322;14.502;2023-02-28T10:12:03;0.30;;;0.30;;
32790;SDS011;19143;59.322;14.502;2023-02-28T10:14:33;0.50;;;0.50;;
32790;SDS011;19143;59.322;14.502;2023-02-28T10:17:01;1.10;;;1.10;;
32790;SDS011;19143;59.322;14.502;2023-02-28T10:19:31;0.50;;;0.50;;
32790;SDS011;19143;59.322;14.502;2023-02-28T10:22:00;0.50;;;0.50;;
32790;SDS011;19143;59.322;14.502;2023-02-28T10:24:28;0.37;;;0.37;;
32790;SDS011;19143;59.322;14.502;2023-02-28T10:26:56;2.20;;;0.30;;
32790;SDS011;19143;59.322;14.502;2023-02-28T10:29:26;0.30;;;0.30;;
32790;SDS011;19143;59.322;14.502;2023-02-28T10:31:54;0.40;;;0.40;;
32790;SDS011;19143;59.322;14.502;2023-02-28T10:34:21;0.47;;;0.30;;
32790;SDS011;19143;59.322;14.502;2023-02-28T10:36:48;0.43;;;0.43;;
32790;SDS011;19143;59.322;14.502;2023-02-28T10:39:38;0.57;;;0.57;;
32790;SDS011;19143;59.322;14.502;2023-02-28T10:42:05;0.63;;;0.43;;
32790;SDS011;19143;59.322;14.502;2023-02-28T10:44:44;1.20;;;0.40;;
32790;SDS011;19143;59.322;14.502;2023-02-28T10:47:15;1.50;;;0.40;;
32790;SDS011;19143;59.322;14.502;2023-02-28T10:49:47;0.40;;;0.40;;
32790;SDS011;19143;59.322;14.502;2023-02-28T10:52:14;0.30;;;0.30;;
32790;SDS011;19143;59.322;14.502;2023-02-28T10:55:13;0.77;;;0.50;;
32790;SDS011;19143;59.322;14.502;2023-02-28T10:57:40;4.37;;;0.43;;
32790;SDS011;19143;59.322;14.502;2023-02-28T11:00:13;0.43;;;0.23;;
32790;SDS011;19143;59.322;14.502;2023-02-28T11:02:42;0.30;;;0.30;;
32790;SDS011;19143;59.322;14.502;2023-02-28T11:05:25;0.50;;;0.50;;
32790;SDS011;19143;59.322;14.502;2023-02-28T11:07:53;2.70;;;0.40;;
32790;SDS011;19143;59.322;14.502;2023-02-28T11:10:20;0.40;;;0.40;;
32790;SDS011;19143;59.322;14.502;2023-02-28T11:12:49;4.23;;;0.63;;
32790;SDS011;19143;59.322;14.502;2023-02-28T11:15:21;0.20;;;0.20;;
32790;SDS011;19143;59.322;14.502;2023-02-28T11:17:54;0.40;;;0.40;;
32790;SDS011;19143;59.322;14.502;2023-02-28T11:20:23;4.23;;;0.50;;
32790;SDS011;19143;59.322;14.502;2023-02-28T11:22:50;1.33;;;0.40;;
32790;SDS011;19143;59.322;14.502;2023-02-28T11:25:19;3.07;;;0.30;;
32790;SDS011;19143;59.322;14.502;2023-02-28T11:27:48;0.20;;;0.20;;
32790;SDS011;19143;59.322;14.502;2023-02-28T11:30:28;1.03;;;0.40;;
32790;SDS011;19143;59.322;14.502;2023-02-28T11:32:57;0.27;;;0.27;;
32790;SDS011;19143;59.322;14.502;2023-02-28T11:35:26;0.20;;;0.20;;
32790;SDS011;19143;59.322;14.502;2023-02-28T11:37:54;0.30;;;0.30;;
32790;SDS011;19143;59.322;14.502;2023-02-28T11:40:23;0.20;;;0.20;;
32790;SDS011;19143;59.322;14.502;2023-02-28T11:42:55;0.43;;;0.20;;
32790;SDS011;19143;59.322;14.502;2023-02-28T11:45:33;2.20;;;0.40;;
32790;SDS011;19143;59.322;14.502;2023-02-28T11:48:04;0.30;;;0.30;;
32790;SDS011;19143;59.322;14.502;2023-02-28T11:50:42;0.30;;;0.30;;
32790;SDS011;19143;59.322;14.502;2023-02-28T11:53:14;0.30;;;0.30;;
32790;SDS011;19143;59.322;14.502;2023-02-28T11:55:44;1.50;;;0.30;;
32790;SDS011;19143;59.322;14.502;2023-02-28T11:58:16;1.03;;;0.40;;
32790;SDS011;19143;59.322;14.502;2023-02-28T12:00:53;0.50;;;0.50;;
32790;SDS011;19143;59.322;14.502;2023-02-28T12:03:28;0.40;;;0.40;;
32790;SDS011;19143;59.322;14.502;2023-02-28T12:06:01;2.10;;;0.40;;
32790;SDS011;19143;59.322;14.502;2023-02-28T12:08:34;0.30;;;0.30;;
32790;SDS011;19143;59.322;14.502;2023-02-28T12:11:07;0.20;;;0.20;;
32790;SDS011;19143;59.322;14.502;2023-02-28T12:13:42;0.30;;;0.30;;
32790;SDS011;19143;59.322;14.502;2023-02-28T12:22:09;0.10;;;0.10;;
32790;SDS011;19143;59.322;14.502;2023-02-28T12:24:47;0.30;;;0.30;;
32790;SDS011;19143;59.322;14.502;2023-02-28T12:27:19;1.97;;;0.40;;
32790;SDS011;19143;59.322;14.502;2023-02-28T12:29:47;0.07;;;0.07;;
32790;SDS011;19143;59.322;14.502;2023-02-28T12:32:16;0.30;;;0.30;;
32790;SDS011;19143;59.322;14.502;2023-02-28T12:34:46;0.40;;;0.33;;
32790;SDS011;19143;59.322;14.502;2023-02-28T12:37:16;2.53;;;0.30;;
32790;SDS011;19143;59.322;14.502;2023-02-28T12:39:44;0.93;;;0.27;;
32790;SDS011;19143;59.322;14.502;2023-02-28T12:42:11;0.33;;;0.30;;
32790;SDS011;19143;59.322;14.502;2023-02-28T12:44:40;4.13;;;0.33;;
32790;SDS011;19143;59.322;14.502;2023-02-28T12:47:11;2.63;;;0.47;;
32790;SDS011;19143;59.322;14.502;2023-02-28T12:49:41;3.40;;;0.30;;
32790;SDS011;19143;59.322;14.502;2023-02-28T12:52:10;0.20;;;0.20;;
32790;SDS011;19143;59.322;14.502;2023-02-28T12:54:42;0.40;;;0.20;;
32790;SDS011;19143;59.322;14.502;2023-02-28T12:57:12;4.03;;;0.33;;
32790;SDS011;19143;59.322;14.502;2023-02-28T12:59:41;0.30;;;0.30;;
32790;SDS011;19143;59.322;14.502;2023-02-28T13:02:10;0.33;;;0.33;;
32790;SDS011;19143;59.322;14.502;2023-02-28T13:04:47;4.00;;;0.30;;
32790;SDS011;19143;59.322;14.502;2023-02-28T13:10:08;5.83;;;0.30;;
32790;SDS011;19143;59.322;14.502;2023-02-28T13:12:35;0.40;;;0.40;;
32790;SDS011;19143;59.322;14.502;2023-02-28T13:15:04;0.83;;;0.70;;
32790;SDS011;19143;59.322;14.502;2023-02-28T13:17:31;2.53;;;0.40;;
32790;SDS011;19143;59.322;14.502;2023-02-28T13:19:59;0.43;;;0.43;;
32790;SDS011;19143;59.322;14.502;2023-02-28T13:22:39;0.87;;;0.40;;
32790;SDS011;19143;59.322;14.502;2023-02-28T13:27:53;0.67;;;0.67;;
32790;SDS011;19143;59.322;14.502;2023-02-28T13:33:23;0.70;;;0.57;;
32790;SDS011;19143;59.322;14.502;2023-02-28T13:36:00;9.10;;;0.80;;
32790;SDS011;19143;59.322;14.502;2023-02-28T13:38:33;3.23;;;0.40;;
32790;SDS011;19143;59.322;14.502;2023-02-28T13:44:01;0.77;;;0.50;;
32790;SDS011;19143;59.322;14.502;2023-02-28T13:46:28;5.90;;;0.60;;
32790;SDS011;19143;59.322;14.502;2023-02-28T13:48:55;0.40;;;0.40;;
32790;SDS011;19143;59.322;14.502;2023-02-28T13:51:31;2.63;;;0.50;;
32790;SDS011;19143;59.322;14.502;2023-02-28T13:54:05;1.83;;;0.80;;
32790;SDS011;19143;59.322;14.502;2023-02-28T13:56:39;0.53;;;0.40;;
32790;SDS011;19143;59.322;14.502;2023-02-28T13:59:15;1.33;;;0.60;;
32790;SDS011;19143;59.322;14.502;2023-02-28T14:01:48;2.33;;;0.40;;
32790;SDS011;19143;59.322;14.502;2023-02-28T14:06:59;0.40;;;0.40;;
32790;SDS011;19143;59.322;14.502;2023-02-28T14:09:27;5.13;;;0.50;;
32790;SDS011;19143;59.322;14.502;2023-02-28T14:11:55;0.30;;;0.30;;
32790;SDS011;19143;59.322;14.502;2023-02-28T14:17:12;0.40;;;0.40;;
32790;SDS011;19143;59.322;14.502;2023-02-28T14:19:40;3.00;;;0.40;;
32790;SDS011;19143;59.322;14.502;2023-02-28T14:22:13;0.90;;;0.40;;
32790;SDS011;19143;59.322;14.502;2023-02-28T14:24:50;1.47;;;0.40;;
32790;SDS011;19143;59.322;14.502;2023-02-28T14:27:26;5.70;;;0.67;;
32790;SDS011;19143;59.322;14.502;2023-02-28T14:30:14;4.83;;;0.53;;
32790;SDS011;19143;59.322;14.502;2023-02-28T14:32:49;0.33;;;0.27;;
32790;SDS011;19143;59.322;14.502;2023-02-28T14:35:29;4.67;;;0.40;;
32790;SDS011;19143;59.322;14.502;2023-02-28T14:38:04;0.20;;;0.20;;
32790;SDS011;19143;59.322;14.502;2023-02-28T14:40:32;4.87;;;0.47;;
32790;SDS011;19143;59.322;14.502;2023-02-28T14:43:16;5.00;;;0.40;;
32790;SDS011;19143;59.322;14.502;2023-02-28T14:45:47;1.93;;;0.43;;
32790;SDS011;19143;59.322;14.502;2023-02-28T14:48:17;0.50;;;0.30;;
32790;SDS011;19143;59.322;14.502;2023-02-28T14:50:48;1.43;;;0.50;;
32790;SDS011;19143;59.322;14.502;2023-02-28T14:53:15;1.27;;;0.40;;
32790;SDS011;19143;59.322;14.502;2023-02-28T14:55:44;6.43;;;0.57;;
32790;SDS011;19143;59.322;14.502;2023-02-28T14:58:20;0.20;;;0.20;;
32790;SDS011;19143;59.322;14.502;2023-02-28T15:00:50;1.70;;;0.30;;
32790;SDS011;19143;59.322;14.502;2023-02-28T15:03:20;0.50;;;0.50;;
32790;SDS011;19143;59.322;14.502;2023-02-28T15:05:53;1.10;;;0.40;;
32790;SDS011;19143;59.322;14.502;2023-02-28T15:08:20;0.20;;;0.20;;
32790;SDS011;19143;59.322;14.502;2023-02-28T15:10:50;0.57;;;0.20;;